Time;durP1;ratioP1;P1;durP2;ratioP2;P2;SDS_P1;SDS_P2;PMS_P1;PMS_P2;Temp;Humidity;BMP_temperature;BMP_pressure;BME280_temperature;BME280_humidity;BME280_pressure;Samples;Min_cycle;Max_cycle;Signal;HPM_P1;HPM_P2
2021/05/11 00:00:58;;;;;;;5.60;3.10;;;;;;;16.56;47.30;100348.67;103815;1097;79775;-61
2021/05/11 00:03:04;;;;;;;5.50;3.70;;;;;;;16.56;47.53;100344.05;103836;1097;77121;-61
2021/05/11 00:05:14;;;;;;;5.30;3.40;;;;;;;16.53;47.58;100334.41;103810;1094;78716;-71
2021/05/11 00:07:20;;;;;;;6.90;4.20;;;;;;;16.49;47.60;100335.91;103812;1095;78156;-72
2021/05/11 00:09:26;;;;;;;4.50;3.00;;;;;;;16.43;47.87;100334.09;103787;1097;79476;-71
2021/05/11 00:11:32;;;;;;;4.60;3.50;;;;;;;16.42;47.91;100337.91;103791;1097;78350;-71
2021/05/11 00:13:38;;;;;;;7.70;3.70;;;;;;;16.39;48.04;100332.06;103824;1097;77846;-71
2021/05/11 00:15:46;;;;;;;5.20;3.00;;;;;;;16.38;48.17;100339.41;103840;1097;77882;-61
2021/05/11 00:17:52;;;;;;;6.20;3.60;;;;;;;16.36;47.99;100343.42;103802;1097;78190;-61
2021/05/11 00:19:59;;;;;;;5.70;3.20;;;;;;;16.33;48.39;100338.42;103791;1095;78499;-62
2021/05/11 00:22:05;;;;;;;6.30;3.20;;;;;;;16.28;48.30;100347.30;103826;1095;79141;-61
2021/05/11 00:24:15;;;;;;;6.30;3.50;;;;;;;16.22;48.36;100347.36;103788;1097;77480;-61
2021/05/11 00:26:21;;;;;;;5.70;3.40;;;;;;;16.18;48.60;100354.34;103783;1094;78160;-61
2021/05/11 00:28:27;;;;;;;5.20;3.10;;;;;;;16.18;49.00;100346.17;103831;1097;79834;-62
2021/05/11 00:30:32;;;;;;;4.80;3.80;;;;;;;16.20;48.75;100354.94;103806;1097;77408;-61
2021/05/11 00:32:38;;;;;;;5.60;3.20;;;;;;;16.17;48.92;100350.78;103816;1097;78492;-61
2021/05/11 00:34:44;;;;;;;4.80;3.20;;;;;;;16.16;49.02;100349.10;103783;1097;78791;-61
2021/05/11 00:36:50;;;;;;;5.40;3.40;;;;;;;16.13;49.05;100340.53;103837;1097;78524;-61
2021/05/11 00:38:56;;;;;;;6.20;3.50;;;;;;;16.09;49.30;100344.79;103812;1095;79084;-61
2021/05/11 00:41:05;;;;;;;4.90;3.50;;;;;;;16.06;49.16;100337.91;103737;1096;79579;-72
2021/05/11 00:43:11;;;;;;;5.90;3.30;;;;;;;16.02;49.17;100347.58;103823;1096;77922;-72
2021/05/11 00:45:17;;;;;;;4.90;3.40;;;;;;;16.02;49.52;100341.28;103845;1095;78028;-71
2021/05/11 00:47:25;;;;;;;6.50;3.90;;;;;;;16.00;49.60;100337.97;103822;1095;78055;-72
2021/05/11 00:49:34;;;;;;;4.70;3.30;;;;;;;15.99;49.62;100342.57;103852;1097;78468;-71
2021/05/11 00:51:40;;;;;;;7.10;3.60;;;;;;;15.97;49.43;100339.25;103862;1094;78154;-61
2021/05/11 00:53:46;;;;;;;5.00;3.30;;;;;;;15.96;49.58;100337.58;103829;1097;79294;-61
2021/05/11 00:55:52;;;;;;;7.10;3.80;;;;;;;15.98;49.84;100340.92;103800;1094;78293;-61
2021/05/11 00:57:59;;;;;;;12.90;5.00;;;;;;;15.96;49.67;100337.58;103826;1097;79743;-61
2021/05/11 01:00:10;;;;;;;4.40;3.30;;;;;;;15.95;49.98;100330.48;103804;1097;77970;-61
2021/05/11 01:02:16;;;;;;;7.20;3.60;;;;;;;15.93;49.73;100341.59;103844;1097;77580;-61
2021/05/11 01:04:22;;;;;;;5.30;2.90;;;;;;;15.90;49.83;100341.22;103774;1097;76915;-61
2021/05/11 01:06:28;;;;;;;6.60;3.50;;;;;;;15.89;50.01;100340.38;103821;1097;78318;-61
2021/05/11 01:08:34;;;;;;;5.20;3.60;;;;;;;15.86;49.93;100335.38;103827;1097;77337;-61
2021/05/11 01:10:40;;;;;;;3.50;2.90;;;;;;;15.85;50.16;100344.60;103776;1097;78725;-72
2021/05/11 01:12:45;;;;;;;7.30;3.00;;;;;;;15.83;50.19;100340.44;103811;1097;79104;-72
2021/05/11 01:14:52;;;;;;;4.40;3.40;;;;;;;15.79;50.19;100342.77;103827;1097;78203;-61
2021/05/11 01:17:00;;;;;;;5.30;3.30;;;;;;;15.74;50.18;100339.89;103839;1096;79747;-61
2021/05/11 01:19:11;;;;;;;6.20;3.30;;;;;;;15.65;50.18;100333.09;103812;1097;78390;-61
2021/05/11 01:21:27;;;;;;;5.90;3.50;;;;;;;15.62;50.67;100327.24;103836;1097;78511;-71
2021/05/11 01:23:56;;;;;;;5.60;3.10;;;;;;;15.56;50.28;100331.70;103839;1096;78188;-71
2021/05/11 01:26:08;;;;;;;5.30;3.40;;;;;;;15.52;50.53;100325.02;103824;1094;78803;-61
2021/05/11 01:28:19;;;;;;;7.70;3.60;;;;;;;15.49;50.86;100319.20;103808;1097;78199;-62
2021/05/11 01:33:07;;;;;;;5.20;3.70;;;;;;;15.43;51.14;100326.34;103439;1097;77798;-72
2021/05/11 01:47:25;;;;;;;4.80;3.70;;;;;;;15.12;51.43;100337.25;103821;1097;78018;-61
2021/05/11 01:49:49;;;;;;;6.50;3.30;;;;;;;15.07;51.74;100337.09;103830;1095;78362;-60
2021/05/11 01:52:18;;;;;;;5.20;3.40;;;;;;;15.02;52.06;100340.48;103788;1097;77057;-61
2021/05/11 01:54:41;;;;;;;4.40;3.10;;;;;;;14.98;52.13;100335.67;103805;1094;78610;-61
2021/05/11 01:57:27;;;;;;;5.70;3.80;;;;;;;14.97;52.16;100339.47;103820;1097;79782;-62
2021/05/11 02:23:55;;;;;;;5.50;3.90;;;;;;;14.66;53.44;100324.80;103734;1094;78790;-71
2021/05/11 02:26:03;;;;;;;4.40;3.90;;;;;;;14.67;53.54;100325.59;103773;1096;78172;-61
2021/05/11 02:28:08;;;;;;;5.50;4.00;;;;;;;14.67;53.78;100321.00;103752;1097;78475;-61
2021/05/11 02:30:17;;;;;;;8.40;4.00;;;;;;;14.66;53.86;100326.67;103719;1097;78596;-72
2021/05/11 02:32:23;;;;;;;6.80;3.90;;;;;;;14.69;53.97;100324.36;103833;1097;77659;-72
2021/05/11 02:34:32;;;;;;;8.60;3.90;;;;;;;14.68;53.92;100322.68;103809;1094;79824;-71
2021/05/11 02:36:43;;;;;;;9.20;3.90;;;;;;;14.67;53.84;100322.88;103860;1097;77937;-72
2021/05/11 02:38:48;;;;;;;4.30;3.90;;;;;;;14.66;54.08;100316.64;103819;1097;78044;-72
2021/05/11 02:40:57;;;;;;;5.60;4.00;;;;;;;14.68;54.00;100321.84;103836;1097;78946;-72
2021/05/11 02:43:05;;;;;;;5.20;4.10;;;;;;;14.65;54.53;100317.67;103865;1094;77972;-71
2021/05/11 02:45:14;;;;;;;8.20;4.30;;;;;;;14.65;54.21;100320.39;103812;1096;78118;-71
2021/05/11 02:47:20;;;;;;;7.20;4.20;;;;;;;14.65;54.02;100320.39;103827;1097;78847;-71
2021/05/11 02:49:26;;;;;;;4.80;3.60;;;;;;;14.61;54.52;100321.87;103853;1097;78022;-72
2021/05/11 02:51:36;;;;;;;7.30;4.10;;;;;;;14.57;54.22;100317.93;103856;1094;78495;-61
2021/05/11 02:53:42;;;;;;;5.50;3.90;;;;;;;14.54;54.26;100312.92;103839;1097;77133;-61
2021/05/11 02:55:47;;;;;;;5.50;4.10;;;;;;;14.54;54.49;100317.52;103855;1097;78815;-72
2021/05/11 02:57:54;;;;;;;4.70;3.60;;;;;;;14.53;54.56;100319.40;103845;1097;79046;-71
2021/05/11 03:00:00;;;;;;;6.50;4.40;;;;;;;14.55;54.65;100317.32;103815;1095;77743;-72
2021/05/11 03:02:06;;;;;;;7.00;4.40;;;;;;;14.53;54.63;100313.16;103828;1097;78147;-72
2021/05/11 03:04:11;;;;;;;9.20;4.40;;;;;;;14.53;54.64;100311.25;103848;1094;78954;-72
2021/05/11 03:06:17;;;;;;;8.20;4.50;;;;;;;14.54;54.55;100315.64;103822;1097;77538;-61
2021/05/11 03:08:23;;;;;;;7.20;4.80;;;;;;;14.53;54.60;100322.13;103809;1097;76938;-61
2021/05/11 03:10:28;;;;;;;5.50;3.80;;;;;;;14.53;54.75;100313.97;103834;1097;79435;-61
2021/05/11 03:12:34;;;;;;;8.20;4.60;;;;;;;14.54;54.66;100321.08;103802;1097;79549;-61
2021/05/11 03:14:40;;;;;;;10.80;4.20;;;;;;;14.49;54.57;100317.34;103839;1097;79638;-65
2021/05/11 03:16:46;;;;;;;9.50;4.30;;;;;;;14.48;54.59;100318.38;103878;1097;79408;-73
2021/05/11 03:18:52;;;;;;;5.60;4.40;;;;;;;14.46;54.50;100324.05;103835;1094;78697;-72
2021/05/11 03:21:00;;;;;;;6.10;4.40;;;;;;;14.46;55.01;100321.33;103830;1097;78134;-72
2021/05/11 03:23:06;;;;;;;9.00;4.30;;;;;;;14.49;55.09;100331.77;103766;1096;78303;-72
2021/05/11 03:25:14;;;;;;;6.20;4.10;;;;;;;14.53;54.93;100324.84;103806;1097;78285;-62
2021/05/11 03:27:20;;;;;;;7.30;4.50;;;;;;;14.57;55.20;100327.97;103840;1095;78227;-62
2021/05/11 03:29:26;;;;;;;6.60;5.10;;;;;;;14.58;55.01;100325.05;103803;1097;78577;-61
2021/05/11 03:31:31;;;;;;;6.90;4.60;;;;;;;14.62;54.71;100323.55;103783;1095;78485;-71
2021/05/11 03:33:37;;;;;;;8.60;4.60;;;;;;;14.65;54.85;100320.39;103819;1097;78902;-71
2021/05/11 03:35:43;;;;;;;8.80;4.50;;;;;;;14.74;54.84;100319.09;103823;1097;78785;-61
2021/05/11 03:37:53;;;;;;;6.30;4.40;;;;;;;15.10;54.86;100314.88;103857;1097;78621;-62
2021/05/11 03:39:58;;;;;;;10.20;4.50;;;;;;;15.75;54.05;100311.61;103865;1097;78128;-61
2021/05/11 03:42:13;;;;;;;8.10;4.30;;;;;;;16.57;53.36;100309.41;103813;1094;78643;-62
2021/05/11 03:44:22;;;;;;;7.60;4.30;;;;;;;17.74;51.99;100314.94;103846;1094;78011;-61
2021/05/11 03:46:28;;;;;;;5.90;3.90;;;;;;;18.77;49.58;100304.01;103832;1097;77999;-61
2021/05/11 03:48:33;;;;;;;6.80;4.50;;;;;;;19.64;48.67;100302.52;103777;1097;77227;-61
2021/05/11 03:50:39;;;;;;;8.50;4.80;;;;;;;20.53;47.37;100306.80;103830;1095;79052;-61
2021/05/11 03:52:45;;;;;;;7.70;3.90;;;;;;;21.31;45.05;100310.09;103780;1097;78063;-62
2021/05/11 03:54:51;;;;;;;8.80;4.30;;;;;;;21.34;43.82;100304.08;103847;1094;78649;-71
2021/05/11 03:56:57;;;;;;;7.80;4.30;;;;;;;21.90;42.77;100302.58;103854;1095;77885;-72
2021/05/11 03:59:04;;;;;;;6.70;4.20;;;;;;;22.35;40.97;100305.59;103794;1097;79018;-72
2021/05/11 04:01:09;;;;;;;5.60;3.70;;;;;;;22.90;41.05;100300.30;103800;1097;78327;-61
2021/05/11 04:03:15;;;;;;;9.60;4.20;;;;;;;23.51;40.89;100300.38;103822;1097;79465;-61
2021/05/11 04:05:21;;;;;;;10.80;3.90;;;;;;;23.99;38.82;100299.73;103790;1097;77782;-62
2021/05/11 04:07:27;;;;;;;9.40;4.10;;;;;;;24.49;38.79;100289.64;103825;1097;78351;-62
2021/05/11 04:09:43;;;;;;;6.40;3.50;;;;;;;24.97;37.78;100293.56;103812;1097;78228;-62
2021/05/11 04:16:54;;;;;;;7.90;3.90;;;;;;;24.55;35.24;100299.56;103804;1096;81822;-72
2021/05/11 04:19:03;;;;;;;6.40;4.30;;;;;;;23.77;36.28;100307.50;103799;1097;77021;-72
2021/05/11 04:21:09;;;;;;;8.00;4.20;;;;;;;22.81;36.59;100310.19;103821;1097;78923;-62
2021/05/11 04:23:17;;;;;;;7.10;4.20;;;;;;;21.95;37.13;100311.70;103825;1097;76845;-62
2021/05/11 04:25:23;;;;;;;4.70;3.60;;;;;;;21.88;37.93;100315.78;103837;1097;78177;-72
2021/05/11 04:27:29;;;;;;;7.10;3.70;;;;;;;21.91;37.77;100318.00;103806;1095;79089;-72
2021/05/11 04:29:37;;;;;;;5.70;3.40;;;;;;;21.58;38.30;100314.45;103857;1095;78666;-72
2021/05/11 04:31:43;;;;;;;9.70;3.90;;;;;;;21.74;38.44;100310.72;103785;1097;77358;-62
2021/05/11 04:33:49;;;;;;;7.30;3.80;;;;;;;22.44;38.32;100308.66;103843;1096;79830;-61
2021/05/11 04:35:55;;;;;;;8.60;3.70;;;;;;;23.91;37.36;100307.75;103855;1097;77521;-73
2021/05/11 04:38:03;;;;;;;5.80;3.90;;;;;;;25.16;35.79;100308.36;103828;1094;79773;-72
2021/05/11 04:40:13;;;;;;;6.10;4.10;;;;;;;26.25;33.96;100310.42;103822;1097;78114;-72
2021/05/11 04:42:18;;;;;;;4.70;3.50;;;;;;;26.90;33.03;100302.38;103795;1095;77351;-73
2021/05/11 04:44:29;;;;;;;4.60;3.80;;;;;;;27.22;32.22;100305.20;103782;1097;79359;-72
2021/05/11 04:46:46;;;;;;;6.30;3.90;;;;;;;27.84;30.76;100297.53;103814;1097;78484;-62
2021/05/11 04:48:55;;;;;;;6.50;4.10;;;;;;;28.25;30.98;100295.65;103852;1097;78313;-62
2021/05/11 04:51:01;;;;;;;5.70;3.70;;;;;;;29.00;29.94;100306.29;103839;1097;79037;-62
2021/05/11 04:53:07;;;;;;;5.20;3.40;;;;;;;29.68;29.30;100298.50;103840;1094;78473;-62
2021/05/11 04:55:15;;;;;;;6.00;3.40;;;;;;;29.13;28.06;100305.42;103818;1094;79162;-73
2021/05/11 04:57:21;;;;;;;4.50;2.80;;;;;;;29.43;28.49;100301.09;103835;1097;78291;-73
2021/05/11 04:59:27;;;;;;;5.90;3.70;;;;;;;29.79;27.66;100310.19;103831;1096;77360;-72
2021/05/11 05:01:33;;;;;;;7.20;3.60;;;;;;;30.12;27.20;100307.92;103814;1094;78130;-73
2021/05/11 05:03:42;;;;;;;8.40;4.00;;;;;;;30.67;26.81;100313.88;103809;1097;78201;-73
2021/05/11 05:05:48;;;;;;;5.80;3.70;;;;;;;30.62;25.53;100306.50;103800;1097;79009;-61
2021/05/11 05:07:54;;;;;;;6.10;3.70;;;;;;;30.89;25.60;100306.22;103782;1097;79829;-62
2021/05/11 05:09:59;;;;;;;4.00;3.30;;;;;;;31.33;26.21;100302.32;103803;1097;78632;-62
2021/05/11 05:12:09;;;;;;;6.60;3.50;;;;;;;31.51;25.35;100305.93;103805;1094;78176;-62
2021/05/11 05:14:18;;;;;;;6.60;3.40;;;;;;;31.56;24.66;100314.16;103779;1097;77887;-62
2021/05/11 05:16:23;;;;;;;5.90;3.90;;;;;;;31.17;24.21;100301.18;103855;1096;78165;-62
2021/05/11 05:18:32;;;;;;;4.30;3.40;;;;;;;31.46;24.57;100309.73;103793;1094;78538;-62
2021/05/11 05:20:38;;;;;;;4.70;3.20;;;;;;;31.73;24.19;100302.94;103820;1094;79802;-62
2021/05/11 05:22:47;;;;;;;5.70;4.00;;;;;;;31.24;23.66;100304.28;103799;1096;78993;-62
2021/05/11 05:24:55;;;;;;;5.40;3.70;;;;;;;31.29;24.26;100295.73;103830;1094;78468;-62
2021/05/11 05:27:04;;;;;;;9.20;3.40;;;;;;;31.90;24.31;100297.30;103838;1097;77466;-62
2021/05/11 05:29:10;;;;;;;4.80;3.70;;;;;;;32.43;23.79;100299.59;103864;1096;78712;-62
2021/05/11 05:31:15;;;;;;;10.00;3.60;;;;;;;32.19;22.96;100290.17;103839;1096;78814;-63
2021/05/11 05:33:31;;;;;;;9.00;3.90;;;;;;;32.40;23.45;100293.84;103831;1097;78614;-62
2021/05/11 05:35:40;;;;;;;6.10;3.50;;;;;;;33.43;22.96;100296.75;103885;1094;78810;-62
2021/05/11 05:37:48;;;;;;;6.00;3.40;;;;;;;33.96;21.76;100300.67;103804;1096;77506;-62
2021/05/11 05:39:57;;;;;;;7.80;3.40;;;;;;;33.98;21.76;100303.97;103825;1094;78454;-63
2021/05/11 05:42:03;;;;;;;7.70;3.50;;;;;;;34.08;21.31;100304.36;103775;1097;79260;-61
2021/05/11 05:44:09;;;;;;;5.60;3.20;;;;;;;34.12;21.46;100298.86;103819;1097;78179;-60
2021/05/11 05:46:16;;;;;;;4.00;3.40;;;;;;;34.07;20.59;100302.72;103798;1097;78366;-61
2021/05/11 05:48:22;;;;;;;5.80;3.30;;;;;;;33.63;21.04;100297.91;103743;1098;78188;-62
2021/05/11 05:50:31;;;;;;;5.70;3.60;;;;;;;33.66;21.67;100302.82;103806;1097;78549;-61
2021/05/11 05:52:38;;;;;;;4.20;3.30;;;;;;;34.02;20.50;100304.89;103793;1097;78963;-61
2021/05/11 05:54:45;;;;;;;9.20;3.90;;;;;;;33.94;21.26;100303.84;103860;1097;79064;-63
2021/05/11 05:56:54;;;;;;;3.80;3.30;;;;;;;33.64;20.85;100302.35;103797;1094;78422;-62
2021/05/11 05:59:03;;;;;;;7.20;3.80;;;;;;;33.11;21.27;100303.95;103842;1097;78666;-63
2021/05/11 06:01:10;;;;;;;5.10;3.20;;;;;;;33.15;21.21;100293.73;103819;1094;78874;-62
2021/05/11 06:03:34;;;;;;;7.60;3.40;;;;;;;33.05;21.19;100294.13;103825;1097;79050;-62
2021/05/11 06:05:40;;;;;;;5.70;3.20;;;;;;;33.22;21.49;100299.58;103797;1094;79036;-73
2021/05/11 06:07:46;;;;;;;4.40;3.20;;;;;;;33.15;20.82;100288.13;103810;1094;76837;-73
2021/05/11 06:09:53;;;;;;;4.70;3.20;;;;;;;32.75;20.89;100286.91;103789;1097;78828;-73
2021/05/11 06:12:03;;;;;;;7.30;3.30;;;;;;;33.44;21.30;100292.79;103788;1097;78784;-73
2021/05/11 06:14:14;;;;;;;5.80;3.20;;;;;;;34.01;20.99;100292.06;103753;1097;78690;-73
2021/05/11 06:18:48;;;;;;;3.90;3.00;;;;;;;35.03;19.27;100305.84;103788;1100;79526;-60
2021/05/11 06:20:58;;;;;;;3.60;2.90;;;;;;;34.94;19.08;100301.18;103803;1097;78052;-61
2021/05/11 06:23:13;;;;;;;6.40;3.50;;;;;;;34.35;19.78;100300.05;103758;1100;77562;-62
2021/05/11 06:25:26;;;;;;;4.90;3.20;;;;;;;34.40;19.17;100286.61;103782;1097;77974;-62
2021/05/11 06:27:42;;;;;;;4.40;3.20;;;;;;;34.61;20.14;100285.70;103777;1097;78816;-60
2021/05/11 06:29:57;;;;;;;5.50;3.40;;;;;;;34.76;20.08;100284.97;103784;1097;78042;-61
2021/05/11 06:32:11;;;;;;;7.30;3.90;;;;;;;34.02;19.43;100283.29;103761;1100;78476;-60
2021/05/11 06:34:23;;;;;;;4.30;3.20;;;;;;;33.47;20.43;100280.08;103731;1100;80023;-61
2021/05/11 06:36:40;;;;;;;6.60;3.50;;;;;;;33.42;19.52;100272.72;103802;1096;78826;-71
2021/05/11 06:38:54;;;;;;;5.50;3.40;;;;;;;32.99;19.83;100272.26;103748;1100;77743;-71
2021/05/11 06:41:08;;;;;;;5.30;3.60;;;;;;;33.32;20.74;100281.53;103790;1096;77831;-63
2021/05/11 06:43:41;;;;;;;6.60;3.40;;;;;;;34.01;21.01;100276.03;103734;1097;76967;-64
2021/05/11 06:49:38;;;;;;;4.30;3.10;;;;;;;34.74;19.69;100270.47;103775;1100;77389;-70
2021/05/11 06:54:17;;;;;;;6.00;3.70;;;;;;;34.56;18.86;100280.30;103729;1097;79255;-70
2021/05/11 06:56:24;;;;;;;4.80;3.30;;;;;;;34.28;19.31;100266.17;103799;1097;77815;-69
2021/05/11 06:58:30;;;;;;;4.80;3.40;;;;;;;34.84;19.30;100272.78;103780;1098;77248;-68
2021/05/11 07:00:35;;;;;;;5.40;3.00;;;;;;;34.64;18.25;100268.16;103760;1099;78057;-69
2021/05/11 07:02:41;;;;;;;5.70;3.40;;;;;;;34.26;19.50;100263.70;103772;1098;78838;-68
2021/05/11 07:04:52;;;;;;;5.70;3.00;;;;;;;34.40;19.70;100257.73;103745;1099;78221;-70
2021/05/11 07:06:58;;;;;;;3.50;2.90;;;;;;;34.47;19.55;100260.78;103770;1100;78309;-68
2021/05/11 07:09:09;;;;;;;4.30;3.20;;;;;;;35.02;19.61;100260.11;103754;1098;78900;-69
2021/05/11 07:11:29;;;;;;;4.60;2.90;;;;;;;35.68;19.15;100251.20;103784;1098;77093;-62
2021/05/11 07:13:34;;;;;;;5.60;3.10;;;;;;;35.38;18.67;100257.17;103810;1097;79037;-63
2021/05/11 07:15:43;;;;;;;3.70;3.00;;;;;;;35.66;19.26;100250.73;103765;1098;79513;-69
2021/05/11 07:17:48;;;;;;;6.20;3.50;;;;;;;34.86;18.30;100245.98;103809;1099;78236;-71
2021/05/11 07:19:54;;;;;;;4.00;3.00;;;;;;;34.27;19.14;100254.13;103782;1098;77265;-61
2021/05/11 07:22:00;;;;;;;5.00;3.20;;;;;;;34.13;19.32;100255.63;103768;1098;78746;-61
2021/05/11 07:24:07;;;;;;;5.50;2.80;;;;;;;34.19;19.02;100240.22;103816;1098;78569;-61
2021/05/11 07:26:25;;;;;;;5.40;3.00;;;;;;;34.58;19.05;100239.52;103744;1097;77924;-72
2021/05/11 07:28:43;;;;;;;4.70;2.70;;;;;;;34.82;19.54;100233.84;103794;1099;78696;-72
2021/05/11 07:30:50;;;;;;;4.40;3.20;;;;;;;35.58;19.87;100238.48;103696;1098;77933;-70
2021/05/11 07:32:58;;;;;;;4.20;2.90;;;;;;;35.52;19.37;100245.50;103780;1097;79022;-70
2021/05/11 07:35:05;;;;;;;6.10;4.10;;;;;;;34.86;18.13;100242.38;103806;1100;78852;-70
2021/05/11 07:37:11;;;;;;;5.00;3.10;;;;;;;34.46;18.69;100239.49;103757;1097;78076;-70
2021/05/11 07:39:22;;;;;;;3.70;2.80;;;;;;;33.97;19.07;100249.88;103766;1097;78490;-71
2021/05/11 07:41:32;;;;;;;4.10;3.00;;;;;;;33.89;19.89;100248.00;103823;1099;79096;-62
2021/05/11 07:43:40;;;;;;;6.40;2.90;;;;;;;34.04;19.38;100246.47;103803;1098;79594;-63
2021/05/11 07:46:13;;;;;;;4.10;2.40;;;;;;;34.01;19.63;100236.78;103790;1099;77795;-71
2021/05/11 07:48:47;;;;;;;4.30;2.80;;;;;;;34.43;19.76;100242.18;103801;1098;78322;-71
2021/05/11 07:51:30;;;;;;;2.90;2.50;;;;;;;34.43;19.81;100237.39;103945;1097;79384;-69
2021/05/11 08:09:45;;;;;;;5.00;2.40;;;;;;;33.74;20.79;100245.86;103283;1097;78403;-70
2021/05/11 08:16:06;;;;;;;5.90;3.10;;;;;;;34.13;19.00;100233.20;103757;1098;77532;-70
2021/05/11 08:18:17;;;;;;;2.90;2.40;;;;;;;33.61;19.74;100230.19;103765;1098;78163;-70
2021/05/11 08:21:49;;;;;;;6.90;2.60;;;;;;;33.72;19.85;100228.58;103767;1097;78823;-68
2021/05/11 08:28:09;;;;;;;5.80;2.80;;;;;;;33.85;19.75;100219.02;103805;1098;78368;-73
2021/05/11 08:30:20;;;;;;;4.10;2.50;;;;;;;33.94;20.32;100213.30;103803;1100;78660;-68
2021/05/11 08:32:26;;;;;;;4.90;2.90;;;;;;;34.30;19.81;100218.94;103801;1098;77642;-70
2021/05/11 08:34:31;;;;;;;3.00;2.30;;;;;;;34.28;19.80;100215.68;103781;1097;78356;-62
2021/05/11 08:36:37;;;;;;;4.80;2.30;;;;;;;34.12;19.50;100218.35;103759;1098;77907;-62
2021/05/11 08:38:45;;;;;;;5.00;2.30;;;;;;;34.57;20.13;100223.84;103790;1097;79848;-62
2021/05/11 08:40:51;;;;;;;3.40;2.50;;;;;;;34.40;20.01;100219.27;103770;1098;79953;-62
2021/05/11 08:43:02;;;;;;;7.00;3.10;;;;;;;34.33;19.37;100221.88;103768;1097;78988;-62
2021/05/11 08:45:14;;;;;;;4.50;2.50;;;;;;;34.04;19.61;100219.26;103808;1098;78668;-62
2021/05/11 08:47:20;;;;;;;;;;;;;;;34.09;19.95;100218.26;103821;1098;78409;-70
2021/05/11 08:49:29;;;;;;;4.00;2.70;;;;;;;33.77;20.11;100219.94;103772;1097;78232;-71
2021/05/11 08:51:50;;;;;;;7.00;2.50;;;;;;;33.88;20.09;100221.13;104148;1099;79152;-62
2021/05/11 09:06:44;;;;;;;4.20;2.60;;;;;;;33.65;20.19;100219.94;103917;1099;78585;-64
2021/05/11 09:09:09;;;;;;;5.40;2.60;;;;;;;33.34;20.76;100217.60;104247;1096;77991;-62
2021/05/11 09:24:45;;;;;;;7.30;3.10;;;;;;;30.94;22.98;100205.64;104261;1094;76996;-61
2021/05/11 09:26:58;;;;;;;5.00;2.40;;;;;;;30.67;23.34;100210.69;104243;1096;78963;-61
2021/05/11 09:29:23;;;;;;;5.50;2.50;;;;;;;30.02;23.61;100211.52;104260;1097;77756;-61
2021/05/11 09:31:48;;;;;;;4.90;2.90;;;;;;;29.68;24.51;100206.59;104288;1096;79943;-64
2021/05/11 09:34:18;;;;;;;6.10;2.60;;;;;;;29.93;24.80;100220.98;104299;1096;78146;-68
2021/05/11 10:44:11;;;;;;;4.80;2.50;;;;;;;27.62;27.82;100162.20;103907;1097;78697;-70
2021/05/11 10:46:46;;;;;;;3.60;2.00;;;;;;;27.81;27.97;100167.64;103860;1096;77750;-70
2021/05/11 10:48:52;;;;;;;3.50;2.30;;;;;;;27.77;27.32;100161.08;104267;1096;79835;-66
2021/05/11 10:51:00;;;;;;;5.30;2.10;;;;;;;27.53;27.59;100159.31;103897;1097;79211;-70
2021/05/11 10:53:58;;;;;;;7.50;2.40;;;;;;;27.56;28.16;100163.42;104265;1096;79736;-67
2021/05/11 10:56:46;;;;;;;6.40;2.10;;;;;;;27.46;27.75;100158.91;104305;1097;78940;-67
2021/05/11 10:59:26;;;;;;;7.80;2.60;;;;;;;27.51;28.03;100156.02;104253;1096;78990;-72
2021/05/11 11:01:36;;;;;;;5.50;2.30;;;;;;;27.51;28.15;100156.02;104271;1095;77779;-73
2021/05/11 11:04:10;;;;;;;4.60;1.80;;;;;;;27.69;28.16;100145.94;103907;1094;78512;-67
2021/05/11 11:06:16;;;;;;;5.20;1.90;;;;;;;27.63;27.96;100151.92;104291;1095;79158;-66
2021/05/11 11:08:34;;;;;;;5.70;2.30;;;;;;;27.63;28.21;100140.82;104246;1095;78865;-64
2021/05/11 11:10:43;;;;;;;4.40;2.40;;;;;;;27.41;28.31;100150.65;104272;1096;78636;-66
2021/05/11 11:12:54;;;;;;;8.40;2.20;;;;;;;27.55;28.27;100139.59;104302;1095;78361;-67
2021/05/11 11:15:02;;;;;;;4.80;1.90;;;;;;;27.65;28.40;100133.00;104304;1097;78878;-64
2021/05/11 11:17:11;;;;;;;5.80;2.30;;;;;;;27.65;27.98;100157.98;104292;1094;77415;-72
2021/05/11 11:19:18;;;;;;;5.50;2.20;;;;;;;27.46;28.16;100131.16;104299;1093;77410;-73
2021/05/11 11:21:45;;;;;;;6.00;2.20;;;;;;;27.41;28.51;100128.45;104284;1095;78323;-73
2021/05/11 11:23:54;;;;;;;6.10;2.00;;;;;;;27.41;28.37;100134.00;104326;1097;77799;-73
2021/05/11 11:26:04;;;;;;;4.80;2.10;;;;;;;27.41;28.59;100128.45;104315;1093;78801;-69
2021/05/11 11:28:10;;;;;;;6.70;2.10;;;;;;;27.39;28.32;100127.91;104256;1097;77228;-69
2021/05/11 11:30:21;;;;;;;5.00;2.20;;;;;;;27.45;28.48;100129.50;104280;1094;77072;-68
2021/05/11 11:32:34;;;;;;;3.30;2.10;;;;;;;27.53;28.51;100112.13;104323;1093;78192;-69
2021/05/11 11:34:53;;;;;;;4.80;2.20;;;;;;;27.52;28.54;100129.90;104321;1093;78436;-68
2021/05/11 11:37:14;;;;;;;6.50;2.10;;;;;;;27.43;28.43;100120.67;104335;1097;77846;-70
2021/05/11 11:39:29;;;;;;;4.00;2.30;;;;;;;27.34;28.74;100119.69;104467;1093;77624;-75
2021/05/11 11:41:46;;;;;;;;;;;;;;;27.36;28.81;100117.42;104306;1094;78042;-69
2021/05/11 11:43:53;;;;;;;6.90;2.30;;;;;;;27.30;28.75;100126.17;104328;1095;77979;-71
2021/05/11 11:46:00;;;;;;;7.20;2.40;;;;;;;27.37;28.92;100130.18;104369;1093;78357;-66
2021/05/11 11:48:09;;;;;;;7.40;2.20;;;;;;;27.40;28.46;100114.87;104258;1095;78821;-68
2021/05/11 11:50:18;;;;;;;5.30;2.20;;;;;;;27.31;28.58;100109.20;104339;1096;78301;-64
2021/05/11 11:52:32;;;;;;;4.50;1.80;;;;;;;27.33;28.87;100122.79;104285;1097;78185;-68
2021/05/11 11:55:05;;;;;;;6.80;2.50;;;;;;;27.40;28.58;100124.05;104315;1096;79057;-71
2021/05/11 12:00:00;;;;;;;5.30;2.10;;;;;;;27.32;29.05;100116.41;104311;1095;78431;-70
2021/05/11 12:02:06;;;;;;;4.20;2.20;;;;;;;27.33;28.67;100106.94;104258;1096;77566;-74
2021/05/11 12:04:19;;;;;;;6.10;2.50;;;;;;;27.35;29.16;100101.09;104281;1096;78897;-73
2021/05/11 12:06:30;;;;;;;9.20;2.20;;;;;;;27.39;29.25;100091.84;104274;1096;78760;-68
2021/05/11 12:08:36;;;;;;;6.30;2.70;;;;;;;27.46;29.00;100108.95;104332;1097;77383;-69
2021/05/11 12:10:45;;;;;;;6.60;2.90;;;;;;;27.42;29.20;100096.81;104323;1095;78204;-70
2021/05/11 12:12:51;;;;;;;6.50;2.50;;;;;;;27.46;28.94;100092.30;104291;1097;78933;-72
2021/05/11 12:15:19;;;;;;;6.10;2.30;;;;;;;27.42;28.89;100091.27;104305;1095;78123;-73
2021/05/11 12:17:33;;;;;;;5.00;2.10;;;;;;;27.36;28.87;100092.45;104308;1097;78617;-66
2021/05/11 12:19:44;;;;;;;3.50;2.20;;;;;;;27.33;28.82;100095.05;104261;1096;77960;-68
2021/05/11 12:21:56;;;;;;;7.20;2.20;;;;;;;27.29;29.08;100083.73;104326;1097;78582;-76
2021/05/11 12:24:11;;;;;;;7.10;2.20;;;;;;;27.37;29.43;100083.02;104282;1096;77896;-76
2021/05/11 12:26:22;;;;;;;4.40;2.10;;;;;;;27.44;29.26;100086.22;104315;1096;78483;-77
2021/05/11 12:28:39;;;;;;;7.70;2.40;;;;;;;27.36;29.14;100081.36;104318;1094;78371;-69
2021/05/11 12:30:49;;;;;;;5.40;2.20;;;;;;;27.34;29.25;100078.08;104257;1097;78874;-73
2021/05/11 12:33:05;;;;;;;4.30;2.10;;;;;;;27.33;29.34;100073.64;104259;1095;78757;-75
2021/05/11 12:35:13;;;;;;;4.20;2.20;;;;;;;27.31;29.32;100059.27;104278;1097;78514;-71
2021/05/11 12:37:22;;;;;;;6.80;2.40;;;;;;;27.27;29.55;100063.80;104306;1097;78819;-63
2021/05/11 12:39:44;;;;;;;6.80;2.20;;;;;;;27.29;29.72;100064.31;104290;1097;79027;-66
2021/05/11 12:42:21;;;;;;;4.70;1.90;;;;;;;27.31;29.88;100067.59;104291;1096;78036;-73
2021/05/11 12:44:31;;;;;;;5.30;2.00;;;;;;;27.28;29.52;100059.05;104277;1097;78043;-75
2021/05/11 12:46:37;;;;;;;6.10;2.30;;;;;;;27.24;30.01;100063.59;104263;1093;78015;-65
2021/05/11 12:48:58;;;;;;;4.70;2.20;;;;;;;27.31;30.15;100072.31;104295;1093;77844;-65
2021/05/11 12:51:08;;;;;;;5.30;2.50;;;;;;;27.25;29.75;100074.36;104296;1093;79506;-70
2021/05/11 12:53:31;;;;;;;5.20;2.10;;;;;;;27.20;29.63;100068.92;104283;1093;78799;-65
2021/05/11 12:56:00;;;;;;;5.50;2.30;;;;;;;27.11;29.48;100068.01;104276;1093;78237;-67